createdAt,value
2017-05-25T00:01:07.262Z,74.30
2017-05-25T00:03:34.279Z,74.20
2017-05-25T00:06:01.939Z,74.30
2017-05-25T00:08:30.944Z,74.40
2017-05-25T00:10:58.105Z,74.40
2017-05-25T00:13:25.953Z,74.30
2017-05-25T00:15:52.322Z,74.30
2017-05-25T00:18:27.256Z,74.70
2017-05-25T00:20:55.918Z,74.70
2017-05-25T00:23:23.589Z,75.00
2017-05-25T00:25:51.133Z,74.80
2017-05-25T00:28:20.187Z,75.00
2017-05-25T00:33:21.190Z,75.20
2017-05-25T00:35:49.491Z,75.40
2017-05-25T00:38:16.006Z,75.30
2017-05-25T00:40:46.124Z,75.60
2017-05-25T00:43:13.128Z,75.80
2017-05-25T00:45:41.130Z,75.30
2017-05-25T00:48:12.077Z,75.80
2017-05-25T00:50:38.454Z,76.00
2017-05-25T00:53:06.315Z,76.00
2017-05-25T00:55:39.436Z,76.10
2017-05-25T00:58:07.073Z,76.00
2017-05-25T01:00:33.883Z,76.20
2017-05-25T01:03:02.004Z,76.40
2017-05-25T01:05:29.061Z,76.30
2017-05-25T01:07:55.363Z,76.30
2017-05-25T01:10:22.504Z,76.20
2017-05-25T01:12:49.473Z,76.50
2017-05-25T01:15:20.083Z,75.90
2017-05-25T01:17:47.614Z,76.30
2017-05-25T01:20:14.816Z,76.80
2017-05-25T01:22:41.862Z,76.80
2017-05-25T01:25:09.904Z,77.00
2017-05-25T01:27:39.058Z,77.00
2017-05-25T01:30:06.298Z,77.20
2017-05-25T01:32:34.040Z,77.30
2017-05-25T01:35:01.199Z,77.40
2017-05-25T01:37:33.256Z,77.40
2017-05-25T01:40:00.920Z,77.40
2017-05-25T01:42:28.139Z,77.60
2017-05-25T01:44:58.075Z,77.60
2017-05-25T01:47:24.610Z,77.50
2017-05-25T01:49:54.067Z,77.70
2017-05-25T01:52:21.789Z,77.80
2017-05-25T01:54:49.678Z,78.00
2017-05-25T01:57:16.777Z,78.10
2017-05-25T01:59:54.521Z,77.90
2017-05-25T02:02:30.090Z,78.10
2017-05-25T02:05:08.388Z,78.20
2017-05-25T02:07:42.277Z,78.10
2017-05-25T02:10:26.852Z,78.20
2017-05-25T02:15:30.554Z,78.10
2017-05-25T02:18:00.934Z,78.50
2017-05-25T02:20:33.752Z,78.40
2017-05-25T02:25:58.538Z,78.50
2017-05-25T02:28:29.479Z,78.70
2017-05-25T02:36:05.679Z,78.80
2017-05-25T02:46:22.756Z,79.40
2017-05-25T02:48:51.249Z,79.20
2017-05-25T02:51:17.888Z,79.10
2017-05-25T02:53:46.906Z,79.30
2017-05-25T02:56:15.387Z,79.20
2017-05-25T02:58:41.695Z,79.30
2017-05-25T03:01:08.933Z,79.30
2017-05-25T03:03:35.144Z,79.20
2017-05-25T03:06:02.572Z,79.20
2017-05-25T03:08:28.930Z,79.50
2017-05-25T03:11:00.874Z,79.50
2017-05-25T03:13:27.208Z,79.40
2017-05-25T03:15:54.709Z,79.60
2017-05-25T03:18:20.874Z,79.80
2017-05-25T03:20:49.552Z,79.50
2017-05-25T03:23:15.886Z,79.60
2017-05-25T03:25:44.202Z,79.60
2017-05-25T03:28:11.222Z,79.20
2017-05-25T03:30:38.147Z,79.70
2017-05-25T03:33:06.571Z,79.80
2017-05-25T03:35:34.108Z,79.90
2017-05-25T03:38:00.473Z,79.80
2017-05-25T03:40:26.799Z,79.60
2017-05-25T03:45:26.061Z,79.60
2017-05-25T03:50:24.315Z,79.70
2017-05-25T03:52:51.425Z,79.80
2017-05-25T03:55:18.877Z,79.80
2017-05-25T03:57:47.180Z,79.80
2017-05-25T04:00:13.478Z,79.60
2017-05-25T04:02:40.558Z,80.00
2017-05-25T04:05:06.800Z,80.00
2017-05-25T04:07:34.804Z,80.20
2017-05-25T04:10:02.162Z,80.40
2017-05-25T04:12:30.231Z,80.40
2017-05-25T04:14:57.455Z,80.20
2017-05-25T04:17:24.083Z,80.20
2017-05-25T04:19:53.033Z,80.10
2017-05-25T04:22:20.158Z,79.90
2017-05-25T04:24:47.480Z,80.20
2017-05-25T04:27:19.477Z,79.90
2017-05-25T04:29:46.008Z,79.90
2017-05-25T04:32:14.546Z,79.90
2017-05-25T04:34:41.569Z,79.80
2017-05-25T04:37:08.893Z,79.80
2017-05-25T04:39:35.449Z,80.30
2017-05-25T04:42:02.159Z,80.00
2017-05-25T04:44:29.481Z,80.00
2017-05-25T04:46:55.966Z,80.10
2017-05-25T04:49:22.314Z,80.00
2017-05-25T04:51:50.686Z,80.20
2017-05-25T04:54:21.657Z,80.10
2017-05-25T04:56:49.779Z,80.30
2017-05-25T05:01:49.518Z,80.30
2017-05-25T05:04:16.264Z,80.00
2017-05-25T05:06:45.526Z,80.00
2017-05-25T05:09:13.570Z,79.90
2017-05-25T05:11:46.134Z,80.00
2017-05-25T05:14:15.727Z,79.90
2017-05-25T05:16:43.182Z,80.00
2017-05-25T05:19:10.971Z,79.90
2017-05-25T05:21:38.509Z,80.20
2017-05-25T05:24:08.696Z,80.10
2017-05-25T05:26:37.687Z,80.30
2017-05-25T05:29:05.127Z,80.60
2017-05-25T05:31:37.421Z,80.30
2017-05-25T05:34:04.709Z,80.10
2017-05-25T05:36:33.492Z,80.10
2017-05-25T05:39:01.485Z,80.10
2017-05-25T05:41:30.051Z,80.20
2017-05-25T05:43:56.297Z,80.00
2017-05-25T05:46:23.926Z,79.80
2017-05-25T05:48:51.626Z,79.80
2017-05-25T05:51:23.158Z,79.60
2017-05-25T05:53:54.331Z,79.40
2017-05-25T05:56:23.865Z,78.90
2017-05-25T06:01:29.886Z,78.70
2017-05-25T06:06:39.504Z,78.80
2017-05-25T06:11:52.114Z,78.40
2017-05-25T06:14:22.476Z,78.40
2017-05-25T06:16:59.183Z,78.20
2017-05-25T06:22:14.912Z,77.80
2017-05-25T06:24:41.521Z,77.80
2017-05-25T06:41:43.474Z,75.20
2017-05-25T06:44:12.462Z,74.60
2017-05-25T06:46:40.229Z,73.20
2017-05-25T06:49:08.394Z,72.20
2017-05-25T06:51:45.692Z,72.10
2017-05-25T06:54:19.961Z,71.80
2017-05-25T07:01:57.261Z,69.70
2017-05-25T07:20:48.552Z,69.00
2017-05-25T07:26:25.157Z,68.20
2017-05-25T07:49:41.221Z,65.80
2017-05-25T07:52:12.450Z,65.40
2017-05-25T07:54:39.683Z,65.30
2017-05-25T07:57:11.218Z,64.90
2017-05-25T07:59:41.425Z,64.80
2017-05-25T08:02:11.350Z,64.40
2017-05-25T08:07:20.956Z,64.10
2017-05-25T08:14:57.528Z,62.40
2017-05-25T08:17:28.228Z,62.80
2017-05-25T08:20:00.704Z,62.80
2017-05-25T08:22:36.756Z,61.90
2017-05-25T08:30:20.089Z,61.20
2017-05-25T08:32:49.376Z,59.90
2017-05-25T08:35:17.089Z,60.00
2017-05-25T08:37:46.545Z,59.90
2017-05-25T08:40:16.969Z,59.40
2017-05-25T08:45:19.690Z,57.80
2017-05-25T08:50:22.765Z,57.60
2017-05-25T08:52:56.276Z,57.50
2017-05-25T08:55:25.758Z,57.70
2017-05-25T09:03:11.443Z,57.00
2017-05-25T09:05:46.075Z,56.60
2017-05-25T09:08:13.935Z,55.70
2017-05-25T09:10:47.249Z,55.80
2017-05-25T09:13:21.955Z,55.60
2017-05-25T09:15:58.155Z,56.10
2017-05-25T09:21:10.092Z,54.70
2017-05-25T09:26:14.378Z,54.30
2017-05-25T09:28:42.516Z,53.90
2017-05-25T09:34:04.837Z,52.60
2017-05-25T09:36:36.915Z,51.40
2017-05-25T09:41:37.454Z,50.50
2017-05-25T09:44:10.808Z,51.60
2017-05-25T09:46:37.618Z,51.70
2017-05-25T09:49:07.421Z,51.70
2017-05-25T09:51:34.567Z,51.60
2017-05-25T09:54:01.337Z,51.20
2017-05-25T09:56:28.063Z,50.90
2017-05-25T09:58:54.777Z,50.60
2017-05-25T10:01:21.518Z,50.60
2017-05-25T10:03:49.013Z,50.30
2017-05-25T10:06:16.732Z,50.20
2017-05-25T10:08:43.969Z,49.10
2017-05-25T10:11:11.373Z,49.20
2017-05-25T10:13:38.131Z,48.70
2017-05-25T10:16:06.207Z,48.20
2017-05-25T10:18:32.997Z,48.40
2017-05-25T10:20:59.751Z,48.30
2017-05-25T10:23:26.782Z,47.40
2017-05-25T10:25:52.764Z,47.40
2017-05-25T10:28:22.421Z,47.70
2017-05-25T10:30:50.048Z,47.40
2017-05-25T10:33:17.400Z,47.20
2017-05-25T10:35:44.135Z,47.40
2017-05-25T10:38:11.686Z,47.10
2017-05-25T10:40:39.185Z,47.40
2017-05-25T10:43:06.953Z,47.60
2017-05-25T10:45:33.672Z,47.30
2017-05-25T10:48:04.524Z,47.30
2017-05-25T10:50:32.997Z,45.40
2017-05-25T10:52:59.265Z,45.40
2017-05-25T10:55:27.604Z,44.50
2017-05-25T11:00:26.657Z,45.00
2017-05-25T11:02:56.435Z,44.80
2017-05-25T11:05:30.063Z,44.40
2017-05-25T11:07:57.942Z,43.60
2017-05-25T11:12:57.423Z,44.00
2017-05-25T11:15:25.956Z,42.80
2017-05-25T11:17:54.788Z,43.50
2017-05-25T11:20:20.775Z,43.30
2017-05-25T11:22:46.800Z,42.90
2017-05-25T11:25:14.539Z,41.90
2017-05-25T11:27:42.705Z,40.70
2017-05-25T11:30:10.324Z,40.80
2017-05-25T11:32:36.355Z,40.60
2017-05-25T11:35:05.674Z,39.70
2017-05-25T11:37:33.103Z,39.80
2017-05-25T11:40:00.762Z,38.10
2017-05-25T11:42:27.485Z,37.80
2017-05-25T11:44:54.226Z,36.30
2017-05-25T11:49:54.754Z,36.20
2017-05-25T11:52:21.508Z,34.30
2017-05-25T11:54:48.268Z,33.50
2017-05-25T11:57:14.255Z,33.40
2017-05-25T11:59:41.771Z,32.10
2017-05-25T12:02:08.809Z,30.60
2017-05-25T12:04:35.668Z,30.50
2017-05-25T12:07:02.509Z,29.10
2017-05-25T12:09:30.691Z,29.10
2017-05-25T12:11:57.395Z,27.80
2017-05-25T12:14:27.504Z,27.70
2017-05-25T12:16:55.146Z,27.40
2017-05-25T12:19:21.323Z,27.40
2017-05-25T12:21:48.116Z,27.00
2017-05-25T12:24:15.551Z,26.70
2017-05-25T12:26:47.320Z,26.70
2017-05-25T12:29:14.191Z,26.30
2017-05-25T12:31:40.940Z,26.10
2017-05-25T12:34:08.070Z,26.00
2017-05-25T12:36:37.306Z,25.30
2017-05-25T12:39:04.126Z,25.30
2017-05-25T12:41:31.097Z,25.80
2017-05-25T12:43:58.699Z,25.20
2017-05-25T12:46:25.364Z,25.20
2017-05-25T12:48:52.063Z,25.10
2017-05-25T12:51:18.789Z,25.00
2017-05-25T12:53:46.468Z,25.30
2017-05-25T12:56:13.392Z,25.20
2017-05-25T12:58:40.300Z,24.80
2017-05-25T13:01:07.831Z,24.50
2017-05-25T13:03:37.632Z,24.60
2017-05-25T13:06:05.092Z,24.70
2017-05-25T13:14:06.490Z,24.10
2017-05-25T13:16:33.652Z,24.50
2017-05-25T13:19:03.073Z,24.10
2017-05-25T13:21:30.398Z,24.10
2017-05-25T13:23:56.415Z,24.00
2017-05-25T13:26:23.129Z,23.70
2017-05-25T13:28:51.344Z,23.50
2017-05-25T13:31:19.139Z,23.40
2017-05-25T13:33:47.914Z,23.70
2017-05-25T13:36:15.850Z,23.00
2017-05-25T13:38:42.136Z,22.80
2017-05-25T13:41:09.068Z,23.80
2017-05-25T13:43:37.031Z,23.40
2017-05-25T13:46:08.613Z,23.00
2017-05-25T13:48:40.004Z,23.10
2017-05-25T13:51:08.185Z,23.40
2017-05-25T13:53:36.190Z,23.60
2017-05-25T13:56:03.098Z,23.40
2017-05-25T13:58:30.172Z,23.70
2017-05-25T14:00:57.269Z,23.60
2017-05-25T14:03:25.247Z,23.30
2017-05-25T14:05:53.140Z,23.40
2017-05-25T14:08:20.343Z,23.30
2017-05-25T14:10:46.616Z,22.90
2017-05-25T14:13:15.054Z,21.60
2017-05-25T14:18:22.650Z,22.00
2017-05-25T14:20:54.518Z,21.50
2017-05-25T14:23:21.463Z,21.60
2017-05-25T14:25:49.881Z,21.50
2017-05-25T14:28:19.291Z,21.70
2017-05-25T14:30:46.106Z,21.10
2017-05-25T14:33:18.896Z,21.10
2017-05-25T14:38:21.086Z,21.20
2017-05-25T14:40:49.579Z,21.80
2017-05-25T14:43:17.565Z,22.30
2017-05-25T14:45:46.153Z,22.80
2017-05-25T14:48:18.796Z,22.70
2017-05-25T14:50:46.422Z,23.30
2017-05-25T14:53:14.262Z,24.30
2017-05-25T14:55:47.245Z,24.80
2017-05-25T14:58:19.424Z,25.40
2017-05-25T15:08:25.082Z,25.00
2017-05-25T15:10:52.036Z,25.30
2017-05-25T15:13:21.003Z,24.80
2017-05-25T15:15:48.354Z,25.40
2017-05-25T15:18:15.153Z,25.50
2017-05-25T15:20:44.388Z,25.40
2017-05-25T15:23:15.840Z,25.30
2017-05-25T15:25:44.008Z,25.50
2017-05-25T15:28:12.407Z,25.50
2017-05-25T15:30:44.973Z,26.00
2017-05-25T15:33:34.660Z,26.40
2017-05-25T15:36:03.756Z,26.10
2017-05-25T15:38:33.094Z,26.10
2017-05-25T15:41:06.647Z,26.00
2017-05-25T15:43:35.597Z,26.50
2017-05-25T15:46:06.854Z,26.30
2017-05-25T15:48:36.175Z,25.90
2017-05-25T15:51:05.173Z,25.90
2017-05-25T15:53:31.902Z,25.20
2017-05-25T15:55:58.709Z,23.90
2017-05-25T15:58:31.853Z,23.20
2017-05-25T16:01:00.192Z,22.70
2017-05-25T16:03:26.868Z,22.50
2017-05-25T16:05:58.262Z,22.50
2017-05-25T16:08:25.987Z,21.70
2017-05-25T16:13:29.454Z,21.50
2017-05-25T16:15:57.644Z,21.40
2017-05-25T16:18:26.422Z,21.20
2017-05-25T16:20:55.852Z,20.70
2017-05-25T16:23:25.187Z,20.70
2017-05-25T16:25:53.586Z,20.70
2017-05-25T16:28:22.511Z,20.60
2017-05-25T16:30:53.612Z,20.40
2017-05-25T16:33:20.640Z,20.40
2017-05-25T16:35:49.197Z,20.20
2017-05-25T16:38:18.130Z,20.20
2017-05-25T16:40:47.357Z,19.80
2017-05-25T16:43:19.952Z,20.00
2017-05-25T16:45:49.924Z,20.20
2017-05-25T16:48:19.019Z,20.40
2017-05-25T16:50:46.049Z,20.40
2017-05-25T16:53:13.859Z,20.90
2017-05-25T16:55:40.791Z,20.80
2017-05-25T16:58:11.254Z,21.00
2017-05-25T17:00:39.400Z,21.00
2017-05-25T17:05:40.423Z,21.00
2017-05-25T17:08:08.487Z,21.10
2017-05-25T17:10:38.654Z,21.00
2017-05-25T17:13:06.526Z,21.00
2017-05-25T17:15:41.947Z,21.10
2017-05-25T17:18:11.942Z,21.30
2017-05-25T17:20:38.778Z,21.30
2017-05-25T17:23:06.211Z,21.80
2017-05-25T17:25:32.276Z,21.20
2017-05-25T17:28:02.050Z,21.60
2017-05-25T17:33:02.747Z,21.60
2017-05-25T17:35:31.956Z,21.70
2017-05-25T17:40:33.103Z,21.70
2017-05-25T17:43:00.696Z,21.80
2017-05-25T17:53:48.741Z,22.60
2017-05-25T18:23:29.729Z,24.40
2017-05-25T18:40:34.300Z,25.90
2017-05-25T19:07:24.980Z,30.00
2017-05-25T19:09:54.263Z,31.10
2017-05-25T19:12:22.879Z,31.10
2017-05-25T19:20:26.791Z,32.60
2017-05-25T19:23:01.199Z,33.50
2017-05-25T19:25:30.198Z,33.90
2017-05-25T19:38:34.026Z,35.00
2017-05-25T19:41:06.988Z,35.80
2017-05-25T19:51:42.421Z,36.30
2017-05-25T19:56:56.568Z,36.90
2017-05-25T19:59:25.412Z,37.50
2017-05-25T20:04:31.267Z,37.70
2017-05-25T20:07:02.677Z,38.00
2017-05-25T20:09:33.997Z,38.30
2017-05-25T20:14:32.406Z,38.50
2017-05-25T20:17:00.359Z,38.70
2017-05-25T20:19:55.475Z,38.90
2017-05-25T20:22:22.679Z,39.00
2017-05-25T20:27:22.098Z,39.20
2017-05-25T20:29:49.945Z,39.50
2017-05-25T20:34:50.531Z,39.80
2017-05-25T20:44:55.707Z,40.40
2017-05-25T20:49:54.218Z,40.70
2017-05-25T20:57:27.200Z,41.60
2017-05-25T20:59:54.151Z,41.90
2017-05-25T21:04:52.742Z,42.00
2017-05-25T21:07:19.925Z,42.50
2017-05-25T21:09:46.949Z,42.50
2017-05-25T21:12:20.747Z,42.90
2017-05-25T21:17:23.801Z,43.10
2017-05-25T21:22:27.676Z,43.50
2017-05-25T21:27:31.104Z,43.80
2017-05-25T21:51:03.399Z,44.80
2017-05-25T22:10:02.784Z,46.00
2017-05-25T22:17:33.343Z,46.30
2017-05-25T22:25:08.637Z,46.50
2017-05-25T22:30:32.741Z,46.90
2017-05-25T22:32:59.561Z,47.10
2017-05-25T22:35:27.372Z,47.10
2017-05-25T22:37:55.482Z,47.00
2017-05-25T22:40:22.866Z,47.30
2017-05-25T22:42:49.936Z,47.60
2017-05-25T22:45:17.508Z,47.80
2017-05-25T22:47:44.539Z,47.80
2017-05-25T22:52:45.352Z,47.90
2017-05-25T22:55:13.164Z,48.00
2017-05-25T22:57:40.064Z,48.10
2017-05-25T23:00:07.729Z,48.00
2017-05-25T23:02:33.846Z,48.50
2017-05-25T23:04:59.985Z,48.10
2017-05-25T23:07:30.513Z,48.10
2017-05-25T23:10:00.229Z,48.00
2017-05-25T23:12:26.984Z,48.10
2017-05-25T23:14:54.679Z,48.30
2017-05-25T23:17:22.490Z,48.30
2017-05-25T23:19:52.071Z,48.40
2017-05-25T23:22:22.476Z,48.50
2017-05-25T23:24:50.916Z,48.60
2017-05-25T23:27:17.768Z,48.60
2017-05-25T23:29:45.340Z,49.10
2017-05-25T23:32:12.250Z,49.40
2017-05-25T23:34:40.763Z,49.50
2017-05-25T23:37:08.858Z,49.40
2017-05-25T23:39:36.628Z,49.90
2017-05-25T23:42:04.290Z,49.90
2017-05-25T23:44:31.199Z,50.20
2017-05-25T23:46:59.753Z,50.40
2017-05-25T23:49:26.943Z,50.70
2017-05-25T23:51:55.543Z,50.70
2017-05-25T23:54:22.376Z,51.20
2017-05-25T23:56:52.098Z,51.10
2017-05-25T23:59:22.200Z,51.50
